createdAt,value
2023-05-14T00:00:47.477Z,98908.55
2023-05-14T00:03:14.588Z,98911.74
2023-05-14T00:05:41.718Z,98913.05
2023-05-14T00:08:08.655Z,98906.95
2023-05-14T00:10:35.710Z,98907.48
2023-05-14T00:13:02.590Z,98908.70
2023-05-14T00:15:31.269Z,98909.23
2023-05-14T00:17:59.264Z,98906.02
2023-05-14T00:20:26.147Z,98906.63
2023-05-14T00:22:53.018Z,98908.50
2023-05-14T00:25:20.055Z,98907.33
2023-05-14T00:27:47.040Z,98907.23
2023-05-14T00:30:14.009Z,98911.50
2023-05-14T00:32:41.027Z,98912.34
2023-05-14T00:35:08.330Z,98912.77
2023-05-14T00:37:36.507Z,98911.02
2023-05-14T00:40:03.930Z,98913.09
2023-05-14T00:42:30.776Z,98911.81
2023-05-14T00:44:57.954Z,98909.58
2023-05-14T00:47:24.987Z,98911.27
2023-05-14T00:49:52.027Z,98917.54
2023-05-14T00:52:18.868Z,98921.73
2023-05-14T00:54:47.002Z,98922.66
2023-05-14T00:57:14.052Z,98920.09
2023-05-14T00:59:42.796Z,98918.70
2023-05-14T01:02:12.214Z,98918.34
2023-05-14T01:04:39.187Z,98914.34
2023-05-14T01:07:44.855Z,98916.59
2023-05-14T01:10:24.540Z,98913.29
2023-05-14T01:12:55.017Z,98911.79
2023-05-14T01:15:27.196Z,98906.34
2023-05-14T01:17:57.151Z,98904.55
2023-05-14T01:20:24.304Z,98905.27
2023-05-14T01:22:51.484Z,98906.51
2023-05-14T01:25:18.597Z,98907.30
2023-05-14T01:28:29.866Z,98908.75
2023-05-14T01:31:08.030Z,98913.83
2023-05-14T01:33:35.362Z,98915.89
2023-05-14T01:36:02.304Z,98912.29
2023-05-14T01:38:31.886Z,98914.11
2023-05-14T01:40:59.147Z,98913.80
2023-05-14T01:43:26.150Z,98911.35
2023-05-14T01:45:55.498Z,98909.38
2023-05-14T01:48:22.656Z,98913.13
2023-05-14T01:50:49.636Z,98913.90
2023-05-14T01:53:19.531Z,98913.91
2023-05-14T01:55:46.535Z,98914.00
2023-05-14T01:58:13.962Z,98915.85
2023-05-14T02:00:41.314Z,98916.39
2023-05-14T02:03:08.642Z,98917.39
2023-05-14T02:05:36.006Z,98914.69
2023-05-14T02:08:02.931Z,98911.56
2023-05-14T02:10:29.812Z,98911.39
2023-05-14T02:12:56.703Z,98908.48
2023-05-14T02:15:23.711Z,98906.76
2023-05-14T02:17:50.693Z,98900.69
2023-05-14T02:20:17.898Z,98898.35
2023-05-14T02:22:46.471Z,98900.61
2023-05-14T02:25:14.079Z,98902.23
2023-05-14T02:27:40.999Z,98901.20
2023-05-14T02:30:09.349Z,98903.45
2023-05-14T02:32:37.101Z,98904.13
2023-05-14T02:35:04.495Z,98902.91
2023-05-14T02:37:31.427Z,98908.16
2023-05-14T02:40:04.049Z,98908.90
2023-05-14T02:42:31.290Z,98907.64
2023-05-14T02:44:58.285Z,98904.64
2023-05-14T02:47:25.196Z,98907.35
2023-05-14T02:53:54.476Z,98908.14
2023-05-14T02:56:21.421Z,98906.92
2023-05-14T02:59:13.979Z,98908.60
2023-05-14T03:01:41.446Z,98910.72
2023-05-14T03:04:09.125Z,98909.00
2023-05-14T03:06:36.114Z,98916.21
2023-05-14T03:09:03.513Z,98913.48
2023-05-14T03:11:30.433Z,98914.90
2023-05-14T03:13:57.291Z,98913.34
2023-05-14T03:16:24.264Z,98919.39
2023-05-14T03:18:51.423Z,98918.13
2023-05-14T03:21:18.499Z,98914.74
2023-05-14T03:23:45.601Z,98911.48
2023-05-14T03:26:12.561Z,98912.98
2023-05-14T03:28:40.902Z,98906.53
2023-05-14T03:31:07.916Z,98908.80
2023-05-14T03:33:36.475Z,98909.14
2023-05-14T03:36:03.669Z,98910.20
2023-05-14T03:38:30.546Z,98908.78
2023-05-14T03:40:57.823Z,98910.85
2023-05-14T03:43:24.790Z,98908.70
2023-05-14T03:45:52.937Z,98912.64
2023-05-14T03:48:20.190Z,98911.42
2023-05-14T03:50:47.249Z,98905.69
2023-05-14T03:53:14.206Z,98899.61
2023-05-14T03:55:41.090Z,98904.08
2023-05-14T03:58:14.517Z,98904.91
2023-05-14T04:00:44.576Z,98906.36
2023-05-14T04:03:12.082Z,98909.33
2023-05-14T04:05:39.122Z,98908.67
2023-05-14T04:08:06.581Z,98910.64
2023-05-14T04:10:33.497Z,98911.41
2023-05-14T04:13:00.562Z,98914.77
2023-05-14T04:15:31.782Z,98914.48
2023-05-14T04:17:58.796Z,98921.90
2023-05-14T04:20:25.897Z,98926.65
2023-05-14T04:22:54.074Z,98928.70
2023-05-14T04:25:21.066Z,98926.84
2023-05-14T04:27:47.942Z,98925.30
2023-05-14T04:30:14.994Z,98924.42
2023-05-14T04:32:41.949Z,98925.23
2023-05-14T04:35:12.998Z,98920.57
2023-05-14T04:37:40.578Z,98923.12
2023-05-14T04:40:08.749Z,98926.93
2023-05-14T04:42:35.701Z,98927.38
2023-05-14T04:45:03.101Z,98928.77
2023-05-14T04:47:29.978Z,98925.63
2023-05-14T04:49:57.939Z,98927.23
2023-05-14T04:52:24.791Z,98926.96
2023-05-14T04:54:51.719Z,98924.15
2023-05-14T04:57:18.791Z,98923.45
2023-05-14T04:59:45.899Z,98920.98
2023-05-14T05:02:12.868Z,98922.22
2023-05-14T05:04:39.829Z,98919.14
2023-05-14T05:07:06.735Z,98917.10
2023-05-14T05:09:36.288Z,98912.39
2023-05-14T05:12:03.169Z,98909.57
2023-05-14T05:14:30.154Z,98905.73
2023-05-14T05:16:57.018Z,98905.55
2023-05-14T05:19:35.639Z,98903.79
2023-05-14T05:22:09.789Z,98907.86
2023-05-14T05:24:36.590Z,98907.13
2023-05-14T05:27:03.667Z,98906.33
2023-05-14T05:29:30.659Z,98906.48
2023-05-14T05:31:57.511Z,98906.69
2023-05-14T05:34:24.373Z,98904.52
2023-05-14T05:36:51.863Z,98904.86
2023-05-14T05:39:18.700Z,98907.08
2023-05-14T05:41:45.785Z,98905.60
2023-05-14T05:44:12.676Z,98903.73
2023-05-14T05:46:39.643Z,98906.86
2023-05-14T05:49:06.507Z,98902.50
2023-05-14T05:51:33.583Z,98905.68
2023-05-14T05:54:00.448Z,98906.61
2023-05-14T05:56:27.309Z,98902.45
2023-05-14T05:58:54.411Z,98904.71
2023-05-14T06:01:21.362Z,98906.74
2023-05-14T06:03:48.914Z,98910.09
2023-05-14T06:06:15.883Z,98915.27
2023-05-14T06:08:42.746Z,98914.61
2023-05-14T06:11:09.753Z,98910.48
2023-05-14T06:13:36.766Z,98907.52
2023-05-14T06:16:03.732Z,98910.48
2023-05-14T06:18:30.649Z,98908.50
2023-05-14T06:21:00.165Z,98907.82
2023-05-14T06:23:27.227Z,98908.00
2023-05-14T06:25:54.215Z,98908.54
2023-05-14T06:28:21.150Z,98905.94
2023-05-14T06:30:50.386Z,98901.27
2023-05-14T06:33:19.414Z,98899.89
2023-05-14T06:35:47.506Z,98903.52
2023-05-14T06:38:14.691Z,98897.34
2023-05-14T06:40:41.664Z,98897.31
2023-05-14T06:43:08.483Z,98892.29
2023-05-14T06:45:36.084Z,98892.16
2023-05-14T06:48:03.074Z,98888.72
2023-05-14T06:50:29.967Z,98883.77
2023-05-14T06:52:56.896Z,98882.05
2023-05-14T06:55:23.774Z,98877.89
2023-05-14T06:57:51.019Z,98878.72
2023-05-14T07:00:18.297Z,98872.79
2023-05-14T07:02:45.141Z,98872.38
2023-05-14T07:05:13.033Z,98873.91
2023-05-14T07:07:40.029Z,98872.73
2023-05-14T07:10:08.265Z,98866.05
2023-05-14T07:12:35.124Z,98857.60
2023-05-14T07:15:02.089Z,98853.84
2023-05-14T07:17:29.189Z,98855.47
2023-05-14T07:19:56.079Z,98852.90
2023-05-14T07:22:22.936Z,98855.15
2023-05-14T07:24:50.277Z,98852.96
2023-05-14T07:27:17.334Z,98845.16
2023-05-14T07:29:44.598Z,98843.44
2023-05-14T07:32:13.238Z,98841.20
2023-05-14T07:34:42.768Z,98839.14
2023-05-14T07:37:09.838Z,98839.05
2023-05-14T07:39:36.702Z,98831.24
2023-05-14T07:42:04.546Z,98829.98
2023-05-14T07:44:31.366Z,98828.40
2023-05-14T07:46:58.230Z,98828.55
2023-05-14T07:49:28.017Z,98826.39
2023-05-14T07:51:54.991Z,98823.70
2023-05-14T07:54:21.868Z,98818.73
2023-05-14T07:56:48.809Z,98820.20
2023-05-14T07:59:16.120Z,98814.16
2023-05-14T08:01:44.521Z,98815.38
2023-05-14T08:04:16.404Z,98813.27
2023-05-14T08:06:43.333Z,98809.41
2023-05-14T08:09:10.335Z,98801.02
2023-05-14T08:11:37.464Z,98799.00
2023-05-14T08:14:04.379Z,98794.31
2023-05-14T08:16:31.318Z,98792.28
2023-05-14T08:18:58.283Z,98785.94
2023-05-14T08:21:25.201Z,98774.73
2023-05-14T08:23:52.110Z,98771.95
2023-05-14T08:26:18.998Z,98772.02
2023-05-14T08:28:45.921Z,98766.54
2023-05-14T08:31:14.695Z,98761.96
2023-05-14T08:33:41.889Z,98763.67
2023-05-14T08:36:09.064Z,98763.57
2023-05-14T08:38:35.896Z,98764.40
2023-05-14T08:41:02.801Z,98760.63
2023-05-14T08:43:31.435Z,98755.77
2023-05-14T08:45:59.232Z,98752.86
2023-05-14T08:48:27.117Z,98750.90
2023-05-14T08:50:54.092Z,98753.82
2023-05-14T08:53:20.915Z,98746.50
2023-05-14T08:55:48.251Z,98748.61
2023-05-14T08:58:15.139Z,98738.59
2023-05-14T09:00:42.292Z,98733.86
2023-05-14T09:03:09.157Z,98736.06
2023-05-14T09:05:36.120Z,98735.44
2023-05-14T09:08:02.917Z,98736.45
2023-05-14T09:10:29.814Z,98733.83
2023-05-14T09:12:56.685Z,98729.08
2023-05-14T09:15:23.781Z,98724.20
2023-05-14T09:17:50.874Z,98725.48
2023-05-14T09:20:17.765Z,98724.20
2023-05-14T09:22:44.580Z,98724.55
2023-05-14T09:25:12.586Z,98722.60
2023-05-14T09:27:39.515Z,98715.99
2023-05-14T09:30:10.970Z,98714.48
2023-05-14T09:32:39.208Z,98713.70
2023-05-14T09:35:14.748Z,98713.90
2023-05-14T09:37:46.371Z,98707.23
2023-05-14T09:40:13.585Z,98700.45
2023-05-14T09:42:40.633Z,98695.23
2023-05-14T09:45:11.346Z,98696.38
2023-05-14T09:47:38.400Z,98698.66
2023-05-14T09:50:06.306Z,98698.78
2023-05-14T09:52:35.734Z,98689.27
2023-05-14T09:55:05.701Z,98683.39
2023-05-14T09:57:35.001Z,98680.33
2023-05-14T10:00:07.341Z,98680.33
2023-05-14T10:02:41.417Z,98679.77
2023-05-14T10:05:08.923Z,98673.98
2023-05-14T10:07:48.004Z,98671.04
2023-05-14T10:10:21.481Z,98669.27
2023-05-14T10:12:53.438Z,98666.32
2023-05-14T10:15:24.551Z,98663.79
2023-05-14T10:18:00.853Z,98663.97
2023-05-14T10:20:27.888Z,98661.91
2023-05-14T10:22:54.736Z,98657.23
2023-05-14T10:25:21.874Z,98651.64
2023-05-14T10:27:48.893Z,98651.50
2023-05-14T10:30:15.875Z,98649.84
2023-05-14T10:32:44.241Z,98642.57
2023-05-14T10:35:18.703Z,98640.58
2023-05-14T10:37:46.773Z,98640.88
2023-05-14T10:40:19.588Z,98639.63
2023-05-14T10:42:46.714Z,98635.35
2023-05-14T10:45:14.924Z,98633.14
2023-05-14T10:47:46.146Z,98635.20
2023-05-14T10:50:17.663Z,98634.84
2023-05-14T10:52:48.080Z,98633.13
2023-05-14T10:55:18.582Z,98632.00
2023-05-14T10:57:46.228Z,98625.66
2023-05-14T11:00:14.304Z,98629.02
2023-05-14T11:02:42.655Z,98628.67
2023-05-14T11:05:11.713Z,98624.39
2023-05-14T11:07:43.422Z,98620.17
2023-05-14T11:10:17.683Z,98615.06
2023-05-14T11:12:46.245Z,98608.39
2023-05-14T11:15:17.591Z,98607.41
2023-05-14T11:17:45.108Z,98600.05
2023-05-14T11:20:12.392Z,98592.47
2023-05-14T11:22:40.184Z,98595.08
2023-05-14T11:25:07.709Z,98601.10
2023-05-14T11:27:36.547Z,98588.04
2023-05-14T11:30:04.094Z,98589.59
2023-05-14T11:32:34.216Z,98588.75
2023-05-14T11:35:01.162Z,98586.45
2023-05-14T11:37:28.083Z,98583.54
2023-05-14T11:39:55.960Z,98578.55
2023-05-14T11:42:23.868Z,98572.78
2023-05-14T11:44:51.943Z,98562.34
2023-05-14T11:47:20.300Z,98562.99
2023-05-14T11:49:47.366Z,98560.08
2023-05-14T11:52:15.373Z,98548.34
2023-05-14T11:54:45.427Z,98547.59
2023-05-14T11:57:21.751Z,98541.85
2023-05-14T11:59:49.687Z,98537.21
2023-05-14T12:02:18.075Z,98536.34
2023-05-14T12:04:45.227Z,98528.73
2023-05-14T12:07:13.649Z,98527.45
2023-05-14T12:09:45.188Z,98522.50
2023-05-14T12:12:12.907Z,98515.48
2023-05-14T12:14:41.831Z,98510.63
2023-05-14T12:18:25.064Z,98503.11
2023-05-14T12:20:52.429Z,98500.60
2023-05-14T12:23:29.737Z,98499.14
2023-05-14T12:26:06.535Z,98491.54
2023-05-14T12:28:36.935Z,98487.80
2023-05-14T12:31:05.323Z,98486.34
2023-05-14T12:33:32.324Z,98484.70
2023-05-14T12:36:17.560Z,98486.08
2023-05-14T12:38:51.520Z,98475.38
2023-05-14T12:41:18.724Z,98475.67
2023-05-14T12:43:45.908Z,98473.02
2023-05-14T12:46:12.829Z,98471.36
2023-05-14T12:48:39.638Z,98467.92
2023-05-14T12:51:06.719Z,98460.39
2023-05-14T12:53:34.822Z,98453.35
2023-05-14T12:56:01.714Z,98450.05
2023-05-14T12:58:28.636Z,98452.02
2023-05-14T13:00:55.511Z,98450.48
2023-05-14T13:03:22.677Z,98452.72
2023-05-14T13:05:51.951Z,98445.46
2023-05-14T13:08:21.678Z,98444.36
2023-05-14T13:10:48.681Z,98432.60
2023-05-14T13:13:15.940Z,98422.20
2023-05-14T13:15:43.011Z,98422.94
2023-05-14T13:18:09.966Z,98422.78
2023-05-14T13:20:36.944Z,98421.02
2023-05-14T13:23:03.887Z,98416.84
2023-05-14T13:25:30.895Z,98419.73
2023-05-14T13:27:57.853Z,98421.52
2023-05-14T13:30:24.953Z,98420.71
2023-05-14T13:32:51.943Z,98418.59
2023-05-14T13:35:19.003Z,98412.15
2023-05-14T13:37:46.085Z,98412.95
2023-05-14T13:40:13.234Z,98414.14
2023-05-14T13:42:40.154Z,98404.81
2023-05-14T13:45:08.094Z,98403.70
2023-05-14T13:47:35.183Z,98400.36
2023-05-14T13:50:02.101Z,98404.03
2023-05-14T13:52:29.092Z,98397.90
2023-05-14T13:54:56.626Z,98395.30
2023-05-14T13:57:23.511Z,98394.55
2023-05-14T13:59:50.567Z,98390.11
2023-05-14T14:02:17.946Z,98388.64
2023-05-14T14:04:44.873Z,98386.17
2023-05-14T14:07:11.880Z,98385.08
2023-05-14T14:09:38.717Z,98388.73
2023-05-14T14:12:06.152Z,98386.04
2023-05-14T14:14:33.135Z,98386.10
2023-05-14T14:17:00.023Z,98377.12
2023-05-14T14:19:27.126Z,98381.55
2023-05-14T14:21:54.165Z,98382.02
2023-05-14T14:24:22.304Z,98383.30
2023-05-14T14:26:49.234Z,98384.77
2023-05-14T14:29:16.147Z,98383.18
2023-05-14T14:31:43.677Z,98385.60
2023-05-14T14:34:10.999Z,98385.30
2023-05-14T14:36:38.157Z,98387.61
2023-05-14T14:39:05.089Z,98387.41
2023-05-14T14:41:31.968Z,98385.89
2023-05-14T14:43:59.029Z,98386.55
2023-05-14T14:46:25.988Z,98377.88
2023-05-14T14:48:53.071Z,98376.21
2023-05-14T14:51:20.277Z,98378.52
2023-05-14T14:53:48.023Z,98373.60
2023-05-14T14:56:15.053Z,98368.93
2023-05-14T14:58:41.997Z,98361.92
2023-05-14T15:01:08.952Z,98361.19
2023-05-14T15:03:36.111Z,98353.84
2023-05-14T15:06:03.117Z,98351.09
2023-05-14T15:08:30.277Z,98347.46
2023-05-14T15:10:57.316Z,98349.41
2023-05-14T15:13:24.973Z,98350.21
2023-05-14T15:15:52.648Z,98348.33
2023-05-14T15:18:19.828Z,98341.42
2023-05-14T15:20:46.858Z,98340.85
2023-05-14T15:23:13.872Z,98334.63
2023-05-14T15:25:40.808Z,98332.23
2023-05-14T15:28:07.839Z,98331.73
2023-05-14T15:30:34.833Z,98324.59
2023-05-14T15:33:01.911Z,98317.95
2023-05-14T15:35:29.054Z,98312.81
2023-05-14T15:37:57.501Z,98309.13
2023-05-14T15:40:24.684Z,98302.65
2023-05-14T15:42:51.864Z,98300.04
2023-05-14T15:45:18.953Z,98294.00
2023-05-14T15:47:46.154Z,98294.38
2023-05-14T15:50:13.263Z,98289.10
2023-05-14T15:52:40.368Z,98288.63
2023-05-14T15:55:07.685Z,98288.57
2023-05-14T15:57:34.818Z,98285.39
2023-05-14T16:00:02.128Z,98281.66
2023-05-14T16:02:33.492Z,98283.71
2023-05-14T16:05:00.568Z,98286.81
2023-05-14T16:07:27.550Z,98279.30
2023-05-14T16:09:54.500Z,98275.88
2023-05-14T16:12:21.391Z,98275.96
2023-05-14T16:14:48.365Z,98275.83
2023-05-14T16:17:15.363Z,98277.17
2023-05-14T16:19:43.029Z,98274.91
2023-05-14T16:22:10.133Z,98273.24
2023-05-14T16:24:37.002Z,98276.39
2023-05-14T16:27:04.021Z,98275.73
2023-05-14T16:29:49.558Z,98276.52
2023-05-14T16:32:16.659Z,98275.79
2023-05-14T16:34:49.725Z,98272.70
2023-05-14T16:37:17.526Z,98271.70
2023-05-14T16:39:44.517Z,98270.36
2023-05-14T16:48:57.008Z,98280.05
2023-05-14T16:51:23.943Z,98285.30
2023-05-14T16:53:51.988Z,98295.00
2023-05-14T16:56:19.302Z,98300.37
2023-05-14T16:58:46.263Z,98304.27
2023-05-14T17:01:13.868Z,98302.13
2023-05-14T17:03:40.942Z,98302.04
2023-05-14T17:06:10.152Z,98305.41
2023-05-14T17:08:37.101Z,98313.58
2023-05-14T17:11:06.049Z,98316.95
2023-05-14T17:13:33.475Z,98318.18
2023-05-14T17:16:00.998Z,98316.73
2023-05-14T17:18:28.561Z,98310.64
2023-05-14T17:20:55.772Z,98308.91
2023-05-14T17:23:22.699Z,98311.13
2023-05-14T17:25:49.919Z,98311.03
2023-05-14T17:28:16.901Z,98308.15
2023-05-14T17:30:44.109Z,98304.90
2023-05-14T17:33:11.753Z,98297.16
2023-05-14T17:35:39.069Z,98294.78
2023-05-14T17:38:06.041Z,98289.13
2023-05-14T17:40:33.618Z,98285.53
2023-05-14T17:43:00.845Z,98278.22
2023-05-14T17:45:29.488Z,98277.46
2023-05-14T17:47:59.258Z,98275.89
2023-05-14T17:50:26.347Z,98275.53
2023-05-14T17:52:53.973Z,98272.65
2023-05-14T17:55:21.403Z,98269.93
2023-05-14T17:57:48.312Z,98272.25
2023-05-14T18:00:15.420Z,98278.20
2023-05-14T18:02:42.540Z,98283.95
2023-05-14T18:05:09.785Z,98281.71
2023-05-14T18:07:36.876Z,98280.36
2023-05-14T18:10:04.153Z,98280.71
2023-05-14T18:12:31.104Z,98278.77
2023-05-14T18:14:58.015Z,98281.11
2023-05-14T18:17:25.058Z,98279.59
2023-05-14T18:19:51.978Z,98284.89
2023-05-14T18:22:21.404Z,98291.27
2023-05-14T18:24:48.284Z,98294.88
2023-05-14T18:27:15.417Z,98298.75
2023-05-14T18:29:43.007Z,98300.56
2023-05-14T18:32:09.932Z,98308.30
2023-05-14T18:34:36.877Z,98305.91
2023-05-14T18:37:03.834Z,98301.01
2023-05-14T18:39:30.731Z,98293.16
2023-05-14T18:41:57.714Z,98293.16
2023-05-14T18:44:24.619Z,98290.55
2023-05-14T18:46:51.813Z,98285.38
2023-05-14T18:49:18.809Z,98286.52
2023-05-14T18:51:46.122Z,98290.55
2023-05-14T18:54:12.956Z,98292.41
2023-05-14T18:56:45.495Z,98291.54
2023-05-14T18:59:14.576Z,98292.35
2023-05-14T19:02:59.574Z,98288.54
2023-05-14T19:05:26.956Z,98281.08
2023-05-14T19:07:54.588Z,98278.06
2023-05-14T19:10:21.544Z,98274.03
2023-05-14T19:19:03.216Z,98268.95
2023-05-14T19:21:30.191Z,98266.87
2023-05-14T19:23:57.154Z,98263.34
2023-05-14T19:26:29.076Z,98263.71
2023-05-14T19:28:58.746Z,98262.58
2023-05-14T19:31:26.477Z,98261.23
2023-05-14T19:33:56.392Z,98259.42
2023-05-14T19:36:23.429Z,98255.45
2023-05-14T19:38:50.322Z,98255.33
2023-05-14T19:41:17.148Z,98261.16
2023-05-14T19:43:44.475Z,98258.39
2023-05-14T19:46:11.989Z,98256.31
2023-05-14T19:48:39.113Z,98256.69
2023-05-14T19:51:07.043Z,98253.03
2023-05-14T19:53:33.873Z,98249.33
2023-05-14T19:56:02.128Z,98242.02
2023-05-14T19:58:29.283Z,98237.16
2023-05-14T20:00:57.633Z,98237.66
2023-05-14T20:03:27.819Z,98233.52
2023-05-14T20:05:55.396Z,98231.12
2023-05-14T20:08:22.412Z,98228.87
2023-05-14T20:10:49.251Z,98230.79
2023-05-14T20:13:16.239Z,98228.12
2023-05-14T20:15:43.393Z,98226.75
2023-05-14T20:18:10.383Z,98224.51
2023-05-14T20:20:37.600Z,98221.88
2023-05-14T20:23:04.426Z,98211.54
2023-05-14T20:25:32.881Z,98207.94
2023-05-14T20:28:02.891Z,98211.29
2023-05-14T20:30:29.953Z,98199.41
2023-05-14T20:32:56.891Z,98200.77
2023-05-14T20:35:24.195Z,98196.41
2023-05-14T20:37:51.324Z,98198.41
2023-05-14T20:40:18.324Z,98193.98
2023-05-14T20:42:45.246Z,98193.33
2023-05-14T20:45:12.159Z,98191.25
2023-05-14T20:47:39.156Z,98191.06
2023-05-14T20:50:07.065Z,98188.52
2023-05-14T20:52:33.970Z,98185.04
2023-05-14T20:55:02.021Z,98186.17
2023-05-14T20:57:29.336Z,98187.52
2023-05-14T20:59:56.237Z,98185.56
2023-05-14T21:02:23.303Z,98181.71
2023-05-14T21:04:50.698Z,98180.88
2023-05-14T21:07:17.569Z,98176.80
2023-05-14T21:10:00.597Z,98169.89
2023-05-14T21:12:27.436Z,98173.20
2023-05-14T21:14:54.279Z,98172.65
2023-05-14T21:17:21.182Z,98161.02
2023-05-14T21:19:48.086Z,98158.34
2023-05-14T21:22:14.981Z,98151.38
2023-05-14T21:24:41.846Z,98147.73
2023-05-14T21:27:08.712Z,98143.16
2023-05-14T21:29:35.685Z,98143.86
2023-05-14T21:32:02.567Z,98138.68
2023-05-14T21:34:31.721Z,98136.19
2023-05-14T21:36:58.991Z,98131.56
2023-05-14T21:39:25.888Z,98128.61
2023-05-14T21:41:52.845Z,98128.77
2023-05-14T21:44:20.975Z,98130.35
2023-05-14T21:46:47.897Z,98133.44
2023-05-14T21:49:15.076Z,98140.02
2023-05-14T21:51:42.930Z,98143.54
2023-05-14T21:54:09.854Z,98140.44
2023-05-14T21:56:37.303Z,98133.80
2023-05-14T21:59:04.971Z,98131.14
2023-05-14T22:01:33.800Z,98131.23
2023-05-14T22:04:05.538Z,98125.95
2023-05-14T22:06:32.488Z,98123.39
2023-05-14T22:08:59.474Z,98124.03
2023-05-14T22:11:26.314Z,98121.30
2023-05-14T22:13:53.339Z,98118.62
2023-05-14T22:16:22.335Z,98114.43
2023-05-14T22:18:49.423Z,98108.33
2023-05-14T22:21:16.478Z,98104.03
2023-05-14T22:23:45.636Z,98098.05
2023-05-14T22:26:12.475Z,98095.98
2023-05-14T22:28:44.134Z,98091.94
2023-05-14T22:31:11.058Z,98084.23
2023-05-14T22:33:37.981Z,98083.63
2023-05-14T22:36:07.068Z,98077.38
2023-05-14T22:38:34.290Z,98073.66
2023-05-14T22:41:01.219Z,98073.64
2023-05-14T22:43:28.698Z,98068.85
2023-05-14T22:45:55.711Z,98071.94
2023-05-14T22:48:22.871Z,98077.73
2023-05-14T22:50:49.709Z,98080.59
2023-05-14T22:53:16.510Z,98079.34
2023-05-14T22:55:43.798Z,98072.27
2023-05-14T22:58:10.656Z,98062.52
2023-05-14T23:00:37.499Z,98055.17
2023-05-14T23:03:04.552Z,98057.59
2023-05-14T23:05:31.499Z,98062.72
2023-05-14T23:07:58.432Z,98064.27
2023-05-14T23:10:25.328Z,98066.65
2023-05-14T23:12:52.334Z,98069.67
2023-05-14T23:15:19.194Z,98066.39
2023-05-14T23:17:46.138Z,98062.04
2023-05-14T23:20:13.264Z,98060.55
2023-05-14T23:22:40.441Z,98060.65
2023-05-14T23:25:07.822Z,98063.19
2023-05-14T23:27:35.169Z,98062.79
2023-05-14T23:30:03.408Z,98049.33
2023-05-14T23:32:30.584Z,98044.10
2023-05-14T23:34:57.707Z,98045.19
2023-05-14T23:37:24.559Z,98041.86
2023-05-14T23:39:51.502Z,98036.27
2023-05-14T23:42:18.394Z,98036.02
2023-05-14T23:44:45.344Z,98033.73
2023-05-14T23:47:12.575Z,98035.12
2023-05-14T23:49:40.903Z,98026.38
2023-05-14T23:52:07.778Z,98022.41
2023-05-14T23:54:34.781Z,98023.48
2023-05-14T23:57:03.086Z,98019.58
2023-05-14T23:59:29.925Z,98011.64
